createdAt,value
2022-08-07T00:00:40.154Z,102127.09
2022-08-07T00:03:09.118Z,102129.84
2022-08-07T00:05:37.157Z,102123.63
2022-08-07T00:08:05.242Z,102116.53
2022-08-07T00:10:35.789Z,102121.94
2022-08-07T00:13:25.646Z,102114.84
2022-08-07T00:15:54.036Z,102122.91
2022-08-07T00:18:25.807Z,102114.91
2022-08-07T00:21:07.942Z,102125.72
2022-08-07T00:23:46.569Z,102118.59
2022-08-07T00:26:31.119Z,102112.34
2022-08-07T00:29:01.758Z,102118.63
2022-08-07T00:31:38.103Z,102116.91
2022-08-07T00:34:08.718Z,102108.84
2022-08-07T00:36:42.610Z,102110.69
2022-08-07T00:39:12.902Z,102105.38
2022-08-07T00:42:02.121Z,102109.00
2022-08-07T00:44:33.414Z,102109.06
2022-08-07T00:47:02.122Z,102109.06
2022-08-07T00:50:19.187Z,102110.00
2022-08-07T00:52:17.696Z,102115.38
2022-08-07T00:54:53.684Z,102111.84
2022-08-07T00:57:26.095Z,102108.31
2022-08-07T00:59:54.146Z,102107.47
2022-08-07T01:02:28.673Z,102103.00
2022-08-07T01:04:58.796Z,102108.44
2022-08-07T01:07:29.290Z,102103.09
2022-08-07T01:10:06.144Z,102104.91
2022-08-07T01:12:38.923Z,102109.41
2022-08-07T01:15:07.426Z,102119.25
2022-08-07T01:17:40.050Z,102121.09
2022-08-07T01:20:16.851Z,102119.31
2022-08-07T01:22:57.823Z,102113.13
2022-08-07T01:25:54.930Z,102114.97
2022-08-07T01:28:21.975Z,102115.84
2022-08-07T01:30:51.259Z,102111.44
2022-08-07T01:33:18.993Z,102115.94
2022-08-07T01:35:54.030Z,102107.00
2022-08-07T01:38:25.016Z,102108.84
2022-08-07T01:40:59.516Z,102113.31
2022-08-07T01:43:34.697Z,102110.66
2022-08-07T01:46:05.694Z,102114.28
2022-08-07T01:48:35.809Z,102103.56
2022-08-07T01:52:02.399Z,102102.69
2022-08-07T01:54:09.938Z,102101.84
2022-08-07T01:56:55.157Z,102105.47
2022-08-07T01:59:32.810Z,102102.78
2022-08-07T02:02:07.419Z,102112.63
2022-08-07T02:04:52.573Z,102106.41
2022-08-07T02:07:44.863Z,102099.31
2022-08-07T02:10:15.283Z,102102.03
2022-08-07T02:12:46.400Z,102099.34
2022-08-07T02:15:22.699Z,102105.63
2022-08-07T02:17:51.986Z,102102.09
2022-08-07T02:20:23.727Z,102102.09
2022-08-07T02:22:57.489Z,102102.13
2022-08-07T02:26:10.429Z,102087.88
2022-08-07T02:28:25.365Z,102096.81
2022-08-07T02:30:55.632Z,102089.72
2022-08-07T02:33:42.000Z,102087.97
2022-08-07T02:36:30.917Z,102088.84
2022-08-07T02:39:15.980Z,102087.97
2022-08-07T02:41:50.555Z,102085.34
2022-08-07T02:44:23.738Z,102088.94
2022-08-07T02:46:56.526Z,102090.72
2022-08-07T02:49:28.621Z,102093.38
2022-08-07T02:51:59.074Z,102102.31
2022-08-07T02:54:30.869Z,102091.59
2022-08-07T02:57:01.836Z,102091.63
2022-08-07T02:59:31.559Z,102088.97
2022-08-07T03:02:02.055Z,102088.09
2022-08-07T03:04:30.963Z,102092.53
2022-08-07T03:07:03.434Z,102087.22
2022-08-07T03:09:41.870Z,102083.66
2022-08-07T03:12:21.998Z,102084.59
2022-08-07T03:14:52.511Z,102089.03
2022-08-07T03:17:25.270Z,102085.47
2022-08-07T03:19:54.707Z,102090.84
2022-08-07T03:22:24.315Z,102089.97
2022-08-07T03:24:59.813Z,102092.66
2022-08-07T03:27:30.571Z,102085.50
2022-08-07T03:30:16.000Z,102081.97
2022-08-07T03:32:57.015Z,102087.34
2022-08-07T03:35:43.827Z,102086.44
2022-08-07T03:38:16.431Z,102079.31
2022-08-07T03:40:47.947Z,102089.13
2022-08-07T03:43:26.604Z,102080.22
2022-08-07T03:45:59.622Z,102077.59
2022-08-07T03:48:29.735Z,102081.13
2022-08-07T03:50:57.932Z,102082.03
2022-08-07T03:53:50.238Z,102093.63
2022-08-07T03:56:19.098Z,102097.22
2022-08-07T03:59:09.858Z,102095.41
2022-08-07T04:01:46.067Z,102091.88
2022-08-07T04:04:17.713Z,102090.97
2022-08-07T04:06:45.407Z,102092.78
2022-08-07T04:09:15.144Z,102093.66
2022-08-07T04:12:26.331Z,102090.97
2022-08-07T04:14:37.430Z,102090.09
2022-08-07T04:17:05.406Z,102093.69
2022-08-07T04:19:52.029Z,102095.44
2022-08-07T04:22:27.522Z,102092.78
2022-08-07T04:24:58.700Z,102094.56
2022-08-07T04:27:28.233Z,102091.91
2022-08-07T04:30:01.664Z,102089.22
2022-08-07T04:32:34.923Z,102100.78
2022-08-07T04:35:11.395Z,102100.78
2022-08-07T04:37:52.825Z,102092.75
2022-08-07T04:40:29.667Z,102104.34
2022-08-07T04:43:02.159Z,102099.00
2022-08-07T04:46:01.001Z,102098.09
2022-08-07T04:48:44.602Z,102102.56
2022-08-07T04:51:46.739Z,102106.13
2022-08-07T04:54:39.069Z,102106.13
2022-08-07T04:58:13.928Z,102090.94
2022-08-07T05:00:14.595Z,102092.69
2022-08-07T05:03:00.653Z,102098.91
2022-08-07T05:05:53.911Z,102102.41
2022-08-07T05:08:59.570Z,102101.44
2022-08-07T05:11:56.816Z,102105.81
2022-08-07T05:14:53.407Z,102098.38
2022-08-07T05:17:52.231Z,102090.88
2022-08-07T05:20:16.793Z,102090.28
2022-08-07T05:22:47.596Z,102094.06
2022-08-07T05:25:26.250Z,102099.41
2022-08-07T05:28:20.710Z,102094.66
2022-08-07T05:30:52.688Z,102100.47
2022-08-07T05:33:21.548Z,102096.66
2022-08-07T05:35:51.207Z,102092.06
2022-08-07T05:39:00.018Z,102091.00
2022-08-07T05:41:15.847Z,102097.81
2022-08-07T05:44:12.149Z,102090.25
2022-08-07T05:46:38.888Z,102090.97
2022-08-07T05:49:11.764Z,102089.63
2022-08-07T05:51:46.342Z,102088.81
2022-08-07T05:54:31.114Z,102093.69
2022-08-07T05:57:04.112Z,102094.06
2022-08-07T05:59:38.894Z,102097.34
2022-08-07T06:02:30.516Z,102087.00
2022-08-07T06:05:04.875Z,102102.34
2022-08-07T06:08:29.486Z,102101.94
2022-08-07T06:10:21.636Z,102103.81
2022-08-07T06:12:49.592Z,102104.94
2022-08-07T06:15:20.018Z,102096.16
2022-08-07T06:17:53.926Z,102096.16
2022-08-07T06:20:25.555Z,102106.50
2022-08-07T06:23:46.145Z,102107.03
2022-08-07T06:25:57.191Z,102104.97
2022-08-07T06:28:27.318Z,102101.28
2022-08-07T06:30:56.255Z,102103.34
2022-08-07T06:33:25.197Z,102103.91
2022-08-07T06:36:06.715Z,102100.00
2022-08-07T06:38:39.374Z,102092.72
2022-08-07T06:42:00.377Z,102103.94
2022-08-07T06:44:14.778Z,102090.50
2022-08-07T06:46:43.448Z,102085.50
2022-08-07T06:49:20.975Z,102088.75
2022-08-07T06:51:50.012Z,102091.25
2022-08-07T06:55:34.339Z,102096.34
2022-08-07T06:57:08.546Z,102094.28
2022-08-07T07:00:14.657Z,102094.19
2022-08-07T07:02:48.873Z,102091.13
2022-08-07T07:06:05.408Z,102096.09
2022-08-07T07:08:07.109Z,102093.91
2022-08-07T07:10:39.512Z,102092.84
2022-08-07T07:13:43.674Z,102086.25
2022-08-07T07:16:19.533Z,102089.63
2022-08-07T07:18:56.216Z,102086.09
2022-08-07T07:21:40.565Z,102086.38
2022-08-07T07:24:17.558Z,102087.13
2022-08-07T07:26:51.914Z,102078.16
2022-08-07T07:29:57.224Z,102081.31
2022-08-07T07:32:14.035Z,102078.53
2022-08-07T07:34:48.682Z,102075.09
2022-08-07T07:37:44.361Z,102081.13
2022-08-07T07:40:10.166Z,102073.56
2022-08-07T07:42:43.932Z,102075.63
2022-08-07T07:45:22.739Z,102071.91
2022-08-07T07:48:11.304Z,102070.59
2022-08-07T07:50:54.353Z,102065.63
2022-08-07T07:53:25.785Z,102068.31
2022-08-07T07:55:57.765Z,102065.59
2022-08-07T07:58:36.962Z,102069.00
2022-08-07T08:02:01.572Z,102062.69
2022-08-07T08:04:09.773Z,102064.25
2022-08-07T08:06:52.296Z,102062.31
2022-08-07T08:09:24.498Z,102058.25
2022-08-07T08:12:02.907Z,102044.53
2022-08-07T08:14:36.478Z,102046.47
2022-08-07T08:17:56.118Z,102052.91
2022-08-07T08:20:17.975Z,102045.94
2022-08-07T08:23:12.855Z,102048.38
2022-08-07T08:26:06.991Z,102046.19
2022-08-07T08:28:43.364Z,102043.31
2022-08-07T08:31:22.951Z,102040.59
2022-08-07T08:33:58.231Z,102044.00
2022-08-07T08:36:30.770Z,102042.91
2022-08-07T08:39:01.901Z,102041.31
2022-08-07T08:41:58.282Z,102044.75
2022-08-07T08:44:44.355Z,102045.94
2022-08-07T08:47:31.329Z,102035.78
2022-08-07T08:50:40.720Z,102041.09
2022-08-07T08:53:33.764Z,102034.06
2022-08-07T08:56:33.554Z,102038.34
2022-08-07T08:59:27.764Z,102037.28
2022-08-07T09:02:16.394Z,102044.13
2022-08-07T09:05:36.674Z,102038.06
2022-08-07T09:08:41.443Z,102041.13
2022-08-07T09:11:51.188Z,102036.00
2022-08-07T09:14:41.042Z,102037.31
2022-08-07T09:17:58.594Z,102029.50
2022-08-07T09:20:35.349Z,102026.88
2022-08-07T09:24:31.727Z,102027.75
2022-08-07T09:26:57.195Z,102027.97
2022-08-07T09:30:05.755Z,102025.25
2022-08-07T09:33:16.816Z,102025.44
2022-08-07T09:36:06.579Z,102015.22
2022-08-07T09:39:53.093Z,102011.16
2022-08-07T09:42:34.966Z,102007.09
2022-08-07T09:47:50.042Z,102015.19
2022-08-07T09:50:01.780Z,102009.53
2022-08-07T09:52:35.301Z,102007.56
2022-08-07T09:56:03.580Z,102002.94
2022-08-07T09:59:14.982Z,101997.31
2022-08-07T10:02:19.127Z,102001.63
2022-08-07T10:05:59.253Z,101992.50
2022-08-07T10:09:05.434Z,101993.34
2022-08-07T10:12:01.806Z,101986.63
2022-08-07T10:14:55.207Z,101989.09
2022-08-07T10:18:00.857Z,101984.41
2022-08-07T10:21:50.710Z,101990.88
2022-08-07T10:24:46.088Z,101985.25
2022-08-07T10:27:46.576Z,101985.56
2022-08-07T10:30:27.535Z,101985.56
2022-08-07T10:34:15.200Z,101975.25
2022-08-07T10:36:47.621Z,101966.59
2022-08-07T10:40:08.850Z,101968.69
2022-08-07T10:43:02.343Z,101972.59
2022-08-07T10:45:44.639Z,101963.97
2022-08-07T10:48:38.714Z,101964.69
2022-08-07T10:51:39.468Z,101954.69
2022-08-07T10:54:38.111Z,101953.22
2022-08-07T10:57:51.605Z,101947.16
2022-08-07T11:00:36.532Z,101948.41
2022-08-07T11:03:28.082Z,101941.34
2022-08-07T11:06:18.288Z,101931.44
2022-08-07T11:09:11.686Z,101930.66
2022-08-07T11:12:06.064Z,101920.78
2022-08-07T11:15:00.618Z,101922.50
2022-08-07T11:17:48.655Z,101917.72
2022-08-07T11:20:25.148Z,101920.25
2022-08-07T11:23:41.529Z,101924.44
2022-08-07T11:26:31.721Z,101916.56
2022-08-07T11:29:41.136Z,101903.22
2022-08-07T11:32:25.776Z,101898.22
2022-08-07T11:35:02.528Z,101897.31
2022-08-07T11:38:30.680Z,101896.91
2022-08-07T11:41:22.283Z,101900.56
2022-08-07T11:44:21.313Z,101896.91
2022-08-07T11:47:15.631Z,101883.84
2022-08-07T11:50:30.410Z,101888.34
2022-08-07T11:53:28.459Z,101880.34
2022-08-07T11:56:28.068Z,101879.53
2022-08-07T12:00:11.640Z,101877.94
2022-08-07T12:03:44.516Z,101884.72
2022-08-07T12:06:40.228Z,101884.25
2022-08-07T12:09:34.652Z,101875.66
2022-08-07T12:12:13.760Z,101884.94
2022-08-07T12:15:05.374Z,101877.88
2022-08-07T12:17:59.054Z,101876.13
2022-08-07T12:21:02.290Z,101872.84
2022-08-07T12:24:07.503Z,101869.25
2022-08-07T12:27:04.978Z,101875.22
2022-08-07T12:30:04.115Z,101858.28
2022-08-07T12:33:01.878Z,101866.34
2022-08-07T12:35:37.007Z,101858.34
2022-08-07T12:38:11.467Z,101860.13
2022-08-07T12:40:48.783Z,101861.31
2022-08-07T12:44:02.573Z,101852.34
2022-08-07T12:46:31.972Z,101844.56
2022-08-07T12:49:25.532Z,101850.06
2022-08-07T12:52:19.256Z,101854.47
2022-08-07T12:55:09.338Z,101842.63
2022-08-07T12:58:00.738Z,101840.06
2022-08-07T13:00:52.186Z,101841.34
2022-08-07T13:04:18.927Z,101835.69
2022-08-07T13:08:18.714Z,101837.13
2022-08-07T13:10:44.810Z,101833.25
2022-08-07T13:14:10.375Z,101823.03
2022-08-07T13:17:02.339Z,101815.88
2022-08-07T13:19:51.119Z,101816.41
2022-08-07T13:22:33.003Z,101815.69
2022-08-07T13:25:39.373Z,101824.28
2022-08-07T13:28:23.976Z,101810.28
2022-08-07T13:31:02.049Z,101814.38
2022-08-07T13:34:33.768Z,101814.09
2022-08-07T13:37:19.856Z,101814.59
2022-08-07T13:40:36.026Z,101799.38
2022-08-07T13:43:05.128Z,101801.53
2022-08-07T13:46:16.439Z,101804.72
2022-08-07T13:48:35.010Z,101802.66
2022-08-07T13:51:20.511Z,101793.59
2022-08-07T13:54:03.299Z,101786.16
2022-08-07T13:56:35.340Z,101781.41
2022-08-07T13:59:20.338Z,101781.88
2022-08-07T14:02:08.444Z,101771.75
2022-08-07T14:04:54.366Z,101777.59
2022-08-07T14:07:28.520Z,101778.19
2022-08-07T14:10:17.736Z,101774.78
2022-08-07T14:12:57.346Z,101780.31
2022-08-07T14:15:40.781Z,101769.22
2022-08-07T14:18:28.500Z,101767.25
2022-08-07T14:21:08.441Z,101764.31
2022-08-07T14:24:02.048Z,101763.19
2022-08-07T14:26:50.252Z,101769.13
2022-08-07T14:30:05.395Z,101767.84
2022-08-07T14:32:12.689Z,101758.25
2022-08-07T14:34:46.414Z,101763.34
2022-08-07T14:37:16.957Z,101758.53
2022-08-07T14:40:16.375Z,101756.78
2022-08-07T14:43:01.325Z,101752.50
2022-08-07T14:48:27.671Z,101751.66
2022-08-07T14:50:58.478Z,101744.25
2022-08-07T15:05:04.419Z,101743.06
2022-08-07T15:16:14.655Z,101734.88
2022-08-07T15:27:26.181Z,101730.41
2022-08-07T15:30:16.451Z,101719.59
2022-08-07T15:32:51.021Z,101723.38
2022-08-07T15:36:02.591Z,101729.94
2022-08-07T15:38:31.196Z,101727.69
2022-08-07T15:41:23.883Z,101712.94
2022-08-07T15:44:10.457Z,101715.28
2022-08-07T15:46:49.951Z,101725.72
2022-08-07T15:50:04.951Z,101713.25
2022-08-07T15:52:17.078Z,101721.31
2022-08-07T15:54:50.738Z,101716.66
2022-08-07T15:57:40.321Z,101716.53
2022-08-07T16:00:31.825Z,101713.03
2022-08-07T16:03:04.770Z,101709.72
2022-08-07T16:05:33.288Z,101706.91
2022-08-07T16:08:30.944Z,101707.78
2022-08-07T16:11:17.425Z,101704.25
2022-08-07T16:14:05.364Z,101706.00
2022-08-07T16:18:02.003Z,101702.88
2022-08-07T16:20:37.377Z,101702.63
2022-08-07T16:23:54.282Z,101700.38
2022-08-07T16:26:32.414Z,101704.63
2022-08-07T16:30:09.892Z,101707.84
2022-08-07T16:32:32.773Z,101700.97
2022-08-07T16:35:58.711Z,101699.63
2022-08-07T16:38:57.520Z,101694.50
2022-08-07T16:41:54.208Z,101694.75
2022-08-07T16:45:14.217Z,101694.06
2022-08-07T16:48:15.107Z,101693.47
2022-08-07T16:51:54.092Z,101697.25
2022-08-07T16:54:34.560Z,101705.50
2022-08-07T16:58:01.557Z,101693.84
2022-08-07T17:00:30.086Z,101691.38
2022-08-07T17:03:57.746Z,101698.06
2022-08-07T17:07:02.960Z,101693.84
2022-08-07T17:10:05.980Z,101689.47
2022-08-07T17:13:16.937Z,101687.78
2022-08-07T17:16:03.459Z,101688.78
2022-08-07T17:18:46.056Z,101686.13
2022-08-07T17:21:22.966Z,101700.72
2022-08-07T17:24:23.645Z,101689.06
2022-08-07T17:27:20.004Z,101689.06
2022-08-07T17:30:16.122Z,101686.31
2022-08-07T17:34:09.248Z,101695.66
2022-08-07T17:36:26.005Z,101690.19
2022-08-07T17:39:15.648Z,101697.75
2022-08-07T17:42:04.932Z,101682.56
2022-08-07T17:44:50.357Z,101687.19
2022-08-07T17:47:42.768Z,101689.28
2022-08-07T17:50:30.157Z,101681.38
2022-08-07T17:53:07.703Z,101694.09
2022-08-07T17:56:06.460Z,101687.06
2022-08-07T17:58:46.148Z,101686.28
2022-08-07T18:01:36.643Z,101688.22
2022-08-07T18:04:42.135Z,101690.31
2022-08-07T18:07:36.120Z,101684.44
2022-08-07T18:10:32.853Z,101684.63
2022-08-07T18:13:20.537Z,101681.25
2022-08-07T18:16:10.284Z,101694.16
2022-08-07T18:21:06.939Z,101688.97
2022-08-07T18:21:55.054Z,101701.00
2022-08-07T18:24:36.900Z,101694.03
2022-08-07T18:27:45.442Z,101697.94
2022-08-07T18:30:31.055Z,101705.47
2022-08-07T18:33:37.873Z,101701.22
2022-08-07T18:36:32.680Z,101706.31
2022-08-07T18:40:08.864Z,101708.38
2022-08-07T18:42:39.502Z,101711.50
2022-08-07T18:45:44.507Z,101707.19
2022-08-07T18:50:06.000Z,101707.13
2022-08-07T18:52:25.647Z,101717.19
2022-08-07T18:54:33.413Z,101711.22
2022-08-07T18:57:46.902Z,101719.69
2022-08-07T19:00:54.932Z,101716.59
2022-08-07T19:03:41.352Z,101721.44
2022-08-07T19:06:34.013Z,101716.47
2022-08-07T19:09:56.851Z,101716.81
2022-08-07T19:12:19.009Z,101732.56
2022-08-07T19:16:02.444Z,101734.84
2022-08-07T19:18:34.956Z,101732.59
2022-08-07T19:21:58.461Z,101733.31
2022-08-07T19:25:06.840Z,101748.94
2022-08-07T19:28:58.336Z,101747.53
2022-08-07T19:31:01.924Z,101748.84
2022-08-07T19:33:35.001Z,101751.94
2022-08-07T19:36:04.120Z,101756.75
2022-08-07T19:38:34.296Z,101767.81
2022-08-07T19:41:02.598Z,101767.25
2022-08-07T19:43:43.963Z,101764.78
2022-08-07T19:46:26.364Z,101760.63
2022-08-07T19:49:13.377Z,101764.53
2022-08-07T19:51:52.707Z,101767.00
2022-08-07T19:54:33.818Z,101774.28
2022-08-07T19:58:02.984Z,101767.25
2022-08-07T20:00:21.875Z,101772.91
2022-08-07T20:03:02.912Z,101782.13
2022-08-07T20:06:00.094Z,101775.97
2022-08-07T20:08:28.258Z,101781.56
2022-08-07T20:11:03.919Z,101780.88
2022-08-07T20:13:55.586Z,101775.72
2022-08-07T20:16:34.697Z,101779.47
2022-08-07T20:19:06.082Z,101782.38
2022-08-07T20:21:46.620Z,101783.53
2022-08-07T20:24:32.890Z,101776.50
2022-08-07T20:27:03.120Z,101777.56
2022-08-07T20:29:48.769Z,101781.31
2022-08-07T20:32:25.803Z,101772.53
2022-08-07T20:34:57.713Z,101779.00
2022-08-07T20:37:37.000Z,101777.34
2022-08-07T20:40:32.319Z,101768.44
2022-08-07T20:43:03.730Z,101768.63
2022-08-07T20:46:25.637Z,101777.66
2022-08-07T20:48:31.122Z,101773.31
2022-08-07T20:51:09.255Z,101782.44
2022-08-07T20:54:04.618Z,101787.13
2022-08-07T20:56:30.743Z,101789.94
2022-08-07T20:59:05.086Z,101785.59
2022-08-07T21:01:45.338Z,101791.94
2022-08-07T21:04:23.641Z,101793.84
2022-08-07T21:06:56.896Z,101792.16
2022-08-07T21:09:51.914Z,101793.13
2022-08-07T21:12:25.923Z,101789.63
2022-08-07T21:14:58.964Z,101795.13
2022-08-07T21:18:09.705Z,101793.38
2022-08-07T21:20:19.064Z,101796.25
2022-08-07T21:22:57.893Z,101783.78
2022-08-07T21:25:58.496Z,101789.31
2022-08-07T21:28:49.063Z,101785.84
2022-08-07T21:32:10.757Z,101794.03
2022-08-07T21:34:56.906Z,101782.56
2022-08-07T21:37:59.479Z,101789.03
2022-08-07T21:40:45.428Z,101791.97
2022-08-07T21:43:56.911Z,101804.81
2022-08-07T21:46:54.256Z,101796.03
2022-08-07T21:50:03.586Z,101804.25
2022-08-07T21:53:08.643Z,101801.72
2022-08-07T21:56:35.835Z,101798.34
2022-08-07T22:00:04.382Z,101805.84
2022-08-07T22:02:45.022Z,101801.47
2022-08-07T22:05:45.544Z,101798.00
2022-08-07T22:08:23.191Z,101803.59
2022-08-07T22:10:58.245Z,101810.84
2022-08-07T22:13:52.990Z,101813.75
2022-08-07T22:16:42.255Z,101810.28
2022-08-07T22:19:30.201Z,101809.53
2022-08-07T22:22:28.755Z,101813.44
2022-08-07T22:25:02.870Z,101810.84
2022-08-07T22:28:29.476Z,101814.56
2022-08-07T22:31:05.100Z,101819.22
2022-08-07T22:33:56.635Z,101821.16
2022-08-07T22:36:46.444Z,101823.16
2022-08-07T22:39:25.797Z,101827.75
2022-08-07T22:42:19.785Z,101821.59
2022-08-07T22:44:58.114Z,101826.25
2022-08-07T22:48:01.227Z,101830.03
2022-08-07T22:51:18.335Z,101832.88
2022-08-07T22:54:26.127Z,101833.91
2022-08-07T22:57:37.370Z,101837.69
2022-08-07T23:00:28.506Z,101835.13
2022-08-07T23:03:23.789Z,101842.44
2022-08-07T23:06:37.374Z,101835.50
2022-08-07T23:10:00.732Z,101840.91
2022-08-07T23:12:42.917Z,101835.59
2022-08-07T23:16:07.028Z,101833.94
2022-08-07T23:18:42.304Z,101834.94
2022-08-07T23:21:29.802Z,101826.91
2022-08-07T23:24:22.571Z,101832.41
2022-08-07T23:27:33.558Z,101823.47
2022-08-07T23:30:39.254Z,101825.38
2022-08-07T23:34:34.162Z,101816.59
2022-08-07T23:36:54.671Z,101823.00
2022-08-07T23:40:36.341Z,101813.31
2022-08-07T23:43:16.673Z,101822.31
2022-08-07T23:46:20.050Z,101818.91
2022-08-07T23:49:15.877Z,101817.19
2022-08-07T23:52:59.710Z,101820.84
2022-08-07T23:54:57.499Z,101824.56
2022-08-07T23:57:34.672Z,101824.56
